CheckWX is a tool to help pilots better visualize weather data.  It is not intended as a substitute for an official pre-flight weather briefing.

08:11:22 UTC

KLKU METAR
Louisa County / Freeman Field Airport
Louisa, Virginia, USA
Current

16 mins ago

KLKU 220755Z AUTO 00000KT 7SM -RA SCT050 SCT070 OVC100 07/06 A3029 RMK AO2 P0001 T00660063
Observed
Feb-22 @ 07:55 UTC
Visibility
7 SM
Flight Rules
VFR
Conditions
Light Rain
Cloud Levels
  • Scattered at 5,000' AGL
  • Scattered at 7,000' AGL
  • Overcast at 10,000' AGL
Temperature
C / 45°F
Dewpoint
C / 43°F
Humidity
93%
Altimeter
30.29" Hg
Pressure
1025.72 hPa
Current Rain
0.01"
Previous

36 mins ago

KLKU 220735Z AUTO 02004KT 5SM RA BR SCT060 BKN070 OVC100 06/06 A3028 RMK AO2 T00640061
Observed
Feb-22 @ 07:35 UTC
Wind
  • 020° at 4 KTS
Visibility
5 SM
Flight Rules
MVFR
Conditions
Rain, Mist
Cloud Levels
  • Scattered at 6,000' AGL
  • Broken at 7,000' AGL
  • Overcast at 10,000' AGL
Temperature
C / 43°F
Dewpoint
C / 43°F
Humidity
100%
Altimeter
30.28" Hg
Pressure
1025.42 hPa
Previous

56 mins ago

KLKU 220715Z AUTO 00000KT 10SM -RA BKN060 BKN080 OVC110 07/06 A3028 RMK AO2 T00690063
Observed
Feb-22 @ 07:15 UTC
Visibility
10 SM
Flight Rules
VFR
Conditions
Light Rain
Cloud Levels
  • Broken at 6,000' AGL
  • Broken at 8,000' AGL
  • Overcast at 11,000' AGL
Temperature
C / 45°F
Dewpoint
C / 43°F
Humidity
93%
Altimeter
30.28" Hg
Pressure
1025.42 hPa